Time;durP1;ratioP1;P1;durP2;ratioP2;P2;SDS_P1;SDS_P2;PMS_P1;PMS_P2;Temp;Humidity;BMP_temperature;BMP_pressure;BME280_temperature;BME280_humidity;BME280_pressure;Samples;Min_cycle;Max_cycle;Signal;HPM_P1;HPM_P2
2022/09/23 00:01:01;;;;;;;7.50;6.40;;;15.60;99.90;;;;;;5078989;28;20040;-71
2022/09/23 00:03:29;;;;;;;7.30;5.95;;;15.60;99.90;;;;;;5093697;28;20123;-70
2022/09/23 00:05:57;;;;;;;7.20;6.03;;;15.60;99.90;;;;;;5096086;28;20047;-70
2022/09/23 00:08:24;;;;;;;10.02;7.18;;;15.60;99.90;;;;;;5095917;28;20036;-71
2022/09/23 00:10:51;;;;;;;9.75;5.43;;;15.60;99.90;;;;;;5090267;28;20090;-73
2022/09/23 00:13:18;;;;;;;8.68;5.57;;;15.60;99.90;;;;;;5081907;28;20037;-70
2022/09/23 00:15:45;;;;;;;6.60;5.90;;;15.60;99.90;;;;;;5063981;28;20097;-70
2022/09/23 00:18:12;;;;;;;6.28;5.00;;;15.60;99.90;;;;;;5077592;28;20141;-70
2022/09/23 00:20:39;;;;;;;6.93;5.47;;;15.60;99.90;;;;;;5071670;28;20040;-74
2022/09/23 00:23:06;;;;;;;7.63;5.68;;;15.60;99.90;;;;;;5081107;28;20052;-70
2022/09/23 00:25:33;;;;;;;7.28;5.35;;;15.60;99.90;;;;;;5082436;28;20394;-70
2022/09/23 00:28:00;;;;;;;7.32;5.15;;;15.60;99.90;;;;;;5077911;28;20503;-72
2022/09/23 00:30:28;;;;;;;7.78;5.97;;;15.60;99.90;;;;;;5072837;28;20036;-72
2022/09/23 00:32:55;;;;;;;6.43;5.35;;;15.60;99.90;;;;;;5069834;28;20090;-71
2022/09/23 00:35:22;;;;;;;6.68;5.15;;;15.60;99.90;;;;;;5088999;28;20138;-71
2022/09/23 00:37:49;;;;;;;8.23;5.90;;;15.60;99.90;;;;;;5076054;28;20036;-71
2022/09/23 00:40:16;;;;;;;11.18;5.03;;;15.60;99.90;;;;;;5081858;28;20102;-71
2022/09/23 00:42:47;;;;;;;7.97;5.72;;;15.60;99.90;;;;;;5077962;28;20072;-71
2022/09/23 00:45:14;;;;;;;7.60;6.68;;;15.70;99.90;;;;;;5077244;28;20041;-71
2022/09/23 00:47:54;;;;;;;7.35;5.43;;;15.60;99.90;;;;;;5081021;28;20472;-73
2022/09/23 00:50:27;;;;;;;;;;;15.70;99.90;;;;;;5096520;28;20480;-71
2022/09/23 00:52:55;;;;;;;6.00;4.95;;;15.60;99.90;;;;;;5070291;28;20375;-71
2022/09/23 00:55:26;;;;;;;7.00;5.50;;;15.60;99.90;;;;;;5087535;28;20480;-71
2022/09/23 00:57:54;;;;;;;8.20;6.03;;;15.60;99.90;;;;;;5079938;28;20098;-71
2022/09/23 01:00:22;;;;;;;10.30;5.53;;;15.60;99.90;;;;;;5090718;28;20066;-72
2022/09/23 01:02:49;;;;;;;8.05;6.15;;;15.50;99.90;;;;;;5071730;28;20037;-71
2022/09/23 01:05:16;;;;;;;6.88;5.78;;;15.50;99.90;;;;;;5070479;28;20108;-72
2022/09/23 01:07:44;;;;;;;8.23;5.60;;;15.50;99.90;;;;;;5075977;28;20041;-71
2022/09/23 01:10:12;;;;;;;9.85;6.72;;;15.50;99.90;;;;;;5089025;28;20102;-71
2022/09/23 01:12:54;;;;;;;7.78;6.97;;;15.40;99.90;;;;;;5074974;28;20043;-71
2022/09/23 01:15:26;;;;;;;9.10;5.78;;;15.40;99.90;;;;;;5075115;28;20098;-74
2022/09/23 01:18:11;;;;;;;8.88;6.90;;;15.40;99.90;;;;;;5067706;28;20536;-71
2022/09/23 01:20:58;;;;;;;7.80;6.43;;;15.30;99.90;;;;;;5095602;28;20048;-69
2022/09/23 01:23:27;;;;;;;12.75;7.50;;;15.30;99.90;;;;;;5075304;28;20051;-72
2022/09/23 01:25:58;;;;;;;;;;;15.30;99.90;;;;;;5078178;28;20039;-72
2022/09/23 01:28:43;;;;;;;7.80;6.68;;;15.20;99.90;;;;;;5084224;28;19924;-70
2022/09/23 01:31:33;;;;;;;8.90;6.55;;;15.20;99.90;;;;;;5076893;28;20040;-71
2022/09/23 01:34:09;;;;;;;7.68;6.88;;;15.20;99.90;;;;;;5098556;28;20052;-74
2022/09/23 01:36:58;;;;;;;11.07;6.90;;;15.20;99.90;;;;;;5084344;28;20113;-71
2022/09/23 01:39:50;;;;;;;9.30;8.27;;;15.20;99.90;;;;;;5081980;28;20055;-71
2022/09/23 01:42:28;;;;;;;8.07;6.78;;;15.20;99.90;;;;;;5081457;28;20442;-71
2022/09/23 01:45:00;;;;;;;8.77;6.70;;;15.20;99.90;;;;;;5065738;28;20044;-71
2022/09/23 01:47:47;;;;;;;9.25;6.70;;;15.20;99.90;;;;;;5093846;28;20040;-71
2022/09/23 01:53:05;;;;;;;10.15;7.22;;;15.20;99.90;;;;;;5083419;28;20052;-71
2022/09/23 01:55:37;;;;;;;13.18;7.50;;;15.20;99.90;;;;;;5087017;28;20036;-71
2022/09/23 01:58:06;;;;;;;11.05;7.30;;;15.20;99.90;;;;;;5080333;28;20106;-71
2022/09/23 02:00:34;;;;;;;10.07;6.65;;;15.20;99.90;;;;;;5079151;28;20089;-71
2022/09/23 02:03:09;;;;;;;9.80;7.32;;;15.20;99.90;;;;;;5080568;28;20491;-71
2022/09/23 02:05:42;;;;;;;8.93;7.13;;;15.30;99.90;;;;;;5083958;28;20040;-71
2022/09/23 02:08:14;;;;;;;10.10;7.72;;;15.20;99.90;;;;;;5074369;28;20505;-71
2022/09/23 02:10:47;;;;;;;8.40;6.35;;;15.20;99.90;;;;;;5078174;28;20118;-71
2022/09/23 02:13:38;;;;;;;10.93;6.50;;;15.20;99.90;;;;;;5076970;28;20047;-71
2022/09/23 02:16:35;;;;;;;15.30;7.72;;;15.30;99.90;;;;;;5071823;28;20044;-71
2022/09/23 02:19:29;;;;;;;9.40;6.45;;;15.30;99.90;;;;;;5080642;28;20036;-71
2022/09/23 02:22:24;;;;;;;8.40;6.40;;;15.30;99.90;;;;;;5079173;28;20530;-71
2022/09/23 02:24:53;;;;;;;12.23;6.95;;;15.30;99.90;;;;;;5077596;28;20147;-77
2022/09/23 02:27:32;;;;;;;7.10;6.00;;;15.30;99.90;;;;;;5078913;28;20162;-71
2022/09/23 02:30:25;;;;;;;8.17;6.57;;;15.30;99.90;;;;;;5100752;28;20094;-71
2022/09/23 02:33:04;;;;;;;9.32;6.53;;;15.30;99.90;;;;;;5081554;28;20468;-71
2022/09/23 02:35:40;;;;;;;7.82;6.03;;;15.40;99.90;;;;;;5079472;28;20045;-75
2022/09/23 02:38:17;;;;;;;8.95;5.93;;;15.40;99.90;;;;;;5091781;28;20074;-70
2022/09/23 02:40:57;;;;;;;7.53;6.30;;;15.40;99.90;;;;;;5081708;28;20106;-71
2022/09/23 02:43:40;;;;;;;8.52;5.82;;;15.40;99.90;;;;;;5097386;28;20064;-70
2022/09/23 02:46:07;;;;;;;10.75;6.78;;;15.40;99.90;;;;;;5084723;28;20097;-71
2022/09/23 02:48:59;;;;;;;14.77;6.82;;;15.40;99.90;;;;;;5076342;28;20446;-72
2022/09/23 02:51:27;;;;;;;7.03;5.80;;;15.40;99.90;;;;;;5043403;28;20098;-71
2022/09/23 02:53:55;;;;;;;10.18;6.30;;;15.40;99.90;;;;;;5090716;28;20383;-72
2022/09/23 02:56:22;;;;;;;7.10;5.53;;;15.40;99.90;;;;;;5084030;28;20047;-71
2022/09/23 02:58:51;;;;;;;7.30;5.47;;;15.40;99.90;;;;;;5061357;28;20507;-71
2022/09/23 03:01:33;;;;;;;8.65;6.50;;;15.40;99.90;;;;;;5093072;28;20058;-72
2022/09/23 03:04:33;;;;;;;8.35;6.40;;;15.40;99.90;;;;;;5083583;28;20122;-72
2022/09/23 03:07:05;;;;;;;10.45;6.55;;;15.40;99.90;;;;;;5078041;28;20032;-71
2022/09/23 03:09:44;;;;;;;12.15;6.43;;;15.30;99.90;;;;;;5080965;28;20049;-72
2022/09/23 03:12:20;;;;;;;11.23;6.45;;;15.30;99.90;;;;;;5091802;28;20049;-73
2022/09/23 03:14:59;;;;;;;9.05;7.07;;;15.30;99.90;;;;;;5065429;28;20043;-71
2022/09/23 03:17:41;;;;;;;8.35;6.13;;;15.30;99.90;;;;;;5084876;28;20049;-70
2022/09/23 03:20:43;;;;;;;10.23;7.25;;;15.30;99.90;;;;;;5081065;28;20036;-71
2022/09/23 03:23:13;;;;;;;10.65;6.97;;;15.30;99.90;;;;;;5069525;28;20474;-71
2022/09/23 03:25:41;;;;;;;10.50;5.65;;;15.20;99.90;;;;;;5100692;28;20040;-71
2022/09/23 03:28:09;;;;;;;15.52;6.97;;;15.30;99.90;;;;;;5079232;28;20044;-71
2022/09/23 03:30:36;;;;;;;6.85;6.13;;;15.30;99.90;;;;;;5085290;28;20047;-72
2022/09/23 03:33:04;;;;;;;11.07;6.93;;;15.20;99.90;;;;;;5097199;28;20036;-71
2022/09/23 03:36:48;;;;;;;6.10;5.50;;;15.20;99.90;;;;;;5076426;28;20524;-73
2022/09/23 03:38:19;;;;;;;7.57;6.75;;;15.20;99.90;;;;;;5050663;28;20469;-71
2022/09/23 03:40:49;;;;;;;11.30;6.28;;;15.20;99.90;;;;;;5045291;28;20436;-70
2022/09/23 03:43:16;;;;;;;9.40;6.97;;;15.20;99.90;;;;;;5074190;28;20045;-71
2022/09/23 03:45:45;;;;;;;8.65;6.32;;;15.20;99.90;;;;;;5063964;28;20048;-71
2022/09/23 03:48:13;;;;;;;8.43;5.93;;;15.30;99.90;;;;;;5056300;28;20376;-71
2022/09/23 03:50:40;;;;;;;11.65;6.25;;;15.30;99.90;;;;;;5055835;28;20067;-72
2022/09/23 03:53:07;;;;;;;8.73;5.90;;;15.20;99.90;;;;;;5055360;28;20044;-70
2022/09/23 03:55:34;;;;;;;8.77;6.03;;;15.30;99.90;;;;;;5062488;28;20040;-71
2022/09/23 03:58:02;;;;;;;9.85;6.03;;;15.30;99.90;;;;;;5062685;28;20132;-71
2022/09/23 04:00:28;;;;;;;7.05;5.60;;;15.30;99.90;;;;;;5056910;28;20083;-71
2022/09/23 04:02:56;;;;;;;7.18;6.50;;;15.30;99.90;;;;;;5068464;28;20468;-71
2022/09/23 04:05:23;;;;;;;7.78;5.88;;;15.20;99.90;;;;;;5061962;28;20055;-71
2022/09/23 04:07:49;;;;;;;6.35;5.28;;;15.30;99.90;;;;;;5060399;28;20041;-71
2022/09/23 04:10:16;;;;;;;7.95;6.20;;;15.20;99.90;;;;;;5062087;28;20040;-71
2022/09/23 04:12:43;;;;;;;8.07;6.18;;;15.20;99.90;;;;;;5056854;28;20041;-70
2022/09/23 04:15:10;;;;;;;10.30;6.53;;;15.20;99.90;;;;;;5061831;28;20102;-75
2022/09/23 04:17:37;;;;;;;9.50;6.35;;;15.20;99.90;;;;;;5056198;28;20435;-70
2022/09/23 04:20:04;;;;;;;9.45;7.20;;;15.20;99.90;;;;;;5057373;28;20369;-75
2022/09/23 04:22:32;;;;;;;7.70;5.93;;;15.20;99.90;;;;;;5064080;28;20036;-71
2022/09/23 04:24:59;;;;;;;7.53;5.50;;;15.20;99.90;;;;;;5056898;28;20094;-71
2022/09/23 04:27:26;;;;;;;7.97;5.72;;;15.20;99.90;;;;;;5058393;28;20076;-71
2022/09/23 04:29:53;;;;;;;9.57;6.20;;;15.30;99.90;;;;;;5059367;28;20045;-72
2022/09/23 04:32:20;;;;;;;8.27;6.32;;;15.20;99.90;;;;;;5059432;28;20040;-71
2022/09/23 04:34:46;;;;;;;8.25;6.28;;;15.30;99.90;;;;;;5074150;28;20064;-71
2022/09/23 04:37:13;;;;;;;8.05;6.05;;;15.20;99.90;;;;;;5100301;28;20091;-71
2022/09/23 04:39:40;;;;;;;8.32;6.05;;;15.20;99.90;;;;;;5078915;28;20452;-72
2022/09/23 04:42:07;;;;;;;9.35;6.07;;;15.30;99.90;;;;;;5078522;28;20458;-71
2022/09/23 04:44:34;;;;;;;8.23;6.15;;;15.20;99.90;;;;;;5078395;28;20047;-71
2022/09/23 04:47:01;;;;;;;7.38;5.63;;;15.30;99.90;;;;;;5073283;28;20055;-71
2022/09/23 04:49:32;;;;;;;9.20;5.50;;;15.30;99.90;;;;;;5080289;28;20485;-70
2022/09/23 04:51:59;;;;;;;7.07;6.03;;;15.20;99.90;;;;;;5091232;28;20044;-71
2022/09/23 04:54:26;;;;;;;12.00;6.95;;;15.20;99.90;;;;;;5077379;28;20052;-70
2022/09/23 04:56:53;;;;;;;10.00;5.40;;;15.20;99.90;;;;;;5092445;28;20430;-73
2022/09/23 04:59:20;;;;;;;8.27;6.35;;;15.20;99.90;;;;;;5086123;28;20040;-71
2022/09/23 05:01:47;;;;;;;7.40;6.15;;;15.20;99.90;;;;;;5076495;28;20040;-72
2022/09/23 05:04:14;;;;;;;8.98;5.47;;;15.20;99.90;;;;;;5094954;28;20047;-71
2022/09/23 05:06:43;;;;;;;6.63;5.88;;;15.20;99.90;;;;;;5082878;28;20102;-70
2022/09/23 05:09:14;;;;;;;7.07;5.30;;;15.20;99.90;;;;;;5074868;28;20139;-72
2022/09/23 05:11:41;;;;;;;9.02;6.30;;;15.10;99.90;;;;;;5079038;28;20049;-69
2022/09/23 05:14:08;;;;;;;8.10;5.10;;;15.10;99.90;;;;;;5092606;28;20102;-71
2022/09/23 05:16:35;;;;;;;7.55;5.65;;;15.10;99.90;;;;;;5073708;28;20052;-71
2022/09/23 05:19:02;;;;;;;8.60;5.40;;;15.10;99.90;;;;;;5082408;28;20495;-70
2022/09/23 05:21:30;;;;;;;9.52;6.28;;;15.10;99.90;;;;;;5084424;28;20040;-71
2022/09/23 05:23:59;;;;;;;7.28;6.00;;;15.20;99.90;;;;;;5078529;28;20055;-71
2022/09/23 05:26:28;;;;;;;7.60;5.68;;;15.10;99.90;;;;;;5082521;28;20040;-69
2022/09/23 05:28:57;;;;;;;7.25;5.72;;;15.20;99.90;;;;;;5069090;28;20040;-69
2022/09/23 05:31:25;;;;;;;10.68;5.95;;;15.20;99.90;;;;;;5081018;28;20036;-69
2022/09/23 05:33:57;;;;;;;7.03;6.32;;;15.20;99.90;;;;;;5058971;28;20044;-69
2022/09/23 05:36:25;;;;;;;8.18;5.82;;;15.20;99.90;;;;;;5064314;28;20045;-68
2022/09/23 05:38:52;;;;;;;6.13;5.43;;;15.20;99.90;;;;;;5083554;28;20066;-71
2022/09/23 05:41:21;;;;;;;7.43;5.80;;;15.30;99.90;;;;;;5077556;28;20036;-70
2022/09/23 05:43:52;;;;;;;8.98;6.28;;;15.30;99.90;;;;;;5095245;28;20040;-70
2022/09/23 05:46:26;;;;;;;7.13;6.43;;;15.30;99.90;;;;;;5080683;28;20433;-72
2022/09/23 05:48:54;;;;;;;13.15;6.55;;;15.30;99.90;;;;;;5067243;28;20091;-71
2022/09/23 05:51:27;;;;;;;10.45;6.97;;;15.30;99.90;;;;;;5080742;28;20040;-71
2022/09/23 05:53:57;;;;;;;7.70;6.85;;;15.30;99.90;;;;;;5080988;28;20195;-71
2022/09/23 05:56:25;;;;;;;11.98;7.18;;;15.30;99.90;;;;;;5079100;28;20052;-71
2022/09/23 05:58:53;;;;;;;9.02;7.40;;;15.40;99.90;;;;;;5081940;28;20057;-72
2022/09/23 06:01:23;;;;;;;9.30;7.60;;;15.40;99.90;;;;;;5097580;28;20447;-70
2022/09/23 06:03:51;;;;;;;9.68;7.50;;;15.40;99.90;;;;;;5075460;28;20047;-71
2022/09/23 06:06:19;;;;;;;10.30;8.00;;;15.40;99.90;;;;;;5062819;28;20094;-70
2022/09/23 06:08:46;;;;;;;10.80;8.88;;;15.40;99.90;;;;;;5083638;28;20040;-71
2022/09/23 06:11:13;;;;;;;10.55;8.35;;;15.40;99.90;;;;;;5073702;28;20041;-70
2022/09/23 06:13:40;;;;;;;10.82;9.02;;;15.40;99.90;;;;;;5080370;28;20123;-69
2022/09/23 06:16:12;;;;;;;13.77;9.38;;;15.50;99.90;;;;;;5081604;28;20078;-71
2022/09/23 06:18:43;;;;;;;13.68;9.52;;;15.50;99.90;;;;;;5081422;28;20111;-70
2022/09/23 06:21:16;;;;;;;11.77;9.73;;;15.40;99.90;;;;;;5078278;28;20051;-71
2022/09/23 06:23:44;;;;;;;15.60;13.45;;;15.40;99.90;;;;;;5080381;28;20383;-71
2022/09/23 06:26:12;;;;;;;15.27;13.00;;;15.40;99.90;;;;;;5098680;28;20052;-74
2022/09/23 06:28:40;;;;;;;13.20;10.23;;;15.30;99.90;;;;;;5096980;28;20044;-71
2022/09/23 06:31:09;;;;;;;12.63;9.77;;;15.30;99.90;;;;;;5097129;28;20097;-71
2022/09/23 06:33:39;;;;;;;14.77;10.32;;;15.30;99.90;;;;;;5080624;28;20098;-70
2022/09/23 06:36:06;;;;;;;11.02;9.23;;;15.20;99.90;;;;;;5081376;28;20094;-68
2022/09/23 06:38:33;;;;;;;132.38;115.43;;;15.20;99.90;;;;;;5055133;28;20093;-69
2022/09/23 06:41:02;;;;;;;22.50;20.13;;;15.20;99.90;;;;;;5080769;28;20059;-70
2022/09/23 06:43:29;;;;;;;18.95;14.85;;;15.20;99.90;;;;;;5076784;28;20040;-70
2022/09/23 06:45:59;;;;;;;13.40;11.27;;;15.20;99.90;;;;;;5062698;28;20491;-70
2022/09/23 06:48:26;;;;;;;14.05;9.77;;;15.20;99.90;;;;;;5065796;28;20078;-71
2022/09/23 06:50:53;;;;;;;16.45;9.45;;;15.20;99.90;;;;;;5081764;28;20085;-69
2022/09/23 06:53:23;;;;;;;12.73;11.15;;;15.20;99.90;;;;;;5081656;28;20044;-69
2022/09/23 06:56:06;;;;;;;16.48;10.15;;;15.20;99.90;;;;;;5096397;28;20045;-70
2022/09/23 06:58:34;;;;;;;13.15;11.00;;;15.20;99.90;;;;;;5072334;28;20082;-69
2022/09/23 07:01:06;;;;;;;16.98;11.18;;;15.20;99.90;;;;;;5078755;28;20040;-69
2022/09/23 07:03:33;;;;;;;13.27;10.95;;;15.20;99.90;;;;;;5062529;28;20040;-69
2022/09/23 07:06:00;;;;;;;14.13;11.07;;;15.20;99.90;;;;;;5080397;28;20040;-70
2022/09/23 07:08:28;;;;;;;13.85;11.38;;;15.20;99.90;;;;;;5083039;28;20052;-71
2022/09/23 07:10:57;;;;;;;17.33;11.60;;;15.20;99.90;;;;;;5084183;28;20048;-72
2022/09/23 07:13:24;;;;;;;14.55;10.65;;;15.20;99.90;;;;;;5072147;28;20071;-71
2022/09/23 07:15:57;;;;;;;13.88;11.48;;;15.20;99.90;;;;;;5079390;28;20090;-72
2022/09/23 07:18:24;;;;;;;13.52;12.07;;;15.20;99.90;;;;;;5082382;28;20497;-71
2022/09/23 07:20:52;;;;;;;13.43;11.00;;;15.30;99.90;;;;;;5077811;28;20037;-76
2022/09/23 07:23:19;;;;;;;13.50;11.27;;;15.30;99.90;;;;;;5076753;28;20048;-75
2022/09/23 07:25:49;;;;;;;14.07;11.80;;;15.30;99.90;;;;;;5076588;28;20052;-72
2022/09/23 07:28:17;;;;;;;16.17;13.73;;;15.40;99.90;;;;;;5055203;28;20125;-71
2022/09/23 07:30:44;;;;;;;14.10;11.52;;;15.40;99.90;;;;;;5097844;28;20037;-72
2022/09/23 07:33:31;;;;;;;15.82;12.02;;;15.40;99.90;;;;;;5071063;28;20434;-70
2022/09/23 07:36:05;;;;;;;14.07;12.45;;;15.40;99.90;;;;;;5078580;28;20048;-71
2022/09/23 07:38:33;;;;;;;13.02;11.10;;;15.40;99.90;;;;;;5071041;28;20101;-71
2022/09/23 07:41:02;;;;;;;14.50;11.25;;;15.50;99.90;;;;;;5079346;28;20070;-70
2022/09/23 07:43:31;;;;;;;15.38;11.45;;;15.50;99.90;;;;;;5062145;28;20522;-72
2022/09/23 07:46:10;;;;;;;12.85;11.40;;;15.60;99.90;;;;;;5073615;28;20541;-72
2022/09/23 07:48:37;;;;;;;;;;;15.60;99.90;;;;;;5081080;28;20040;-70
2022/09/23 07:51:11;;;;;;;99.38;83.82;;;15.70;99.90;;;;;;5082909;28;19939;-72
2022/09/23 07:53:38;;;;;;;18.98;16.98;;;15.70;99.90;;;;;;5073154;28;20505;-70
2022/09/23 07:56:05;;;;;;;12.75;11.40;;;15.70;99.90;;;;;;5077401;28;20051;-70
2022/09/23 07:58:33;;;;;;;37.55;33.47;;;15.70;99.90;;;;;;5082316;28;20043;-68
2022/09/23 08:01:04;;;;;;;24.38;21.88;;;15.70;99.90;;;;;;5077037;28;20035;-70
2022/09/23 08:03:31;;;;;;;12.30;11.00;;;15.80;99.90;;;;;;5076078;28;20040;-70
2022/09/23 08:06:04;;;;;;;9.30;8.00;;;15.80;99.90;;;;;;5061437;28;20114;-69
2022/09/23 08:08:31;;;;;;;9.00;8.02;;;15.80;99.90;;;;;;5072556;28;20082;-68
2022/09/23 08:11:02;;;;;;;8.05;7.20;;;15.80;99.90;;;;;;5088893;28;20097;-70
2022/09/23 08:13:31;;;;;;;10.85;8.18;;;15.80;99.90;;;;;;5045858;28;20169;-70
2022/09/23 08:15:57;;;;;;;8.40;7.53;;;15.80;99.90;;;;;;5078645;28;20059;-70
2022/09/23 08:18:25;;;;;;;9.77;8.25;;;15.80;99.90;;;;;;5075217;28;20045;-70
2022/09/23 08:20:51;;;;;;;12.55;8.57;;;15.80;99.90;;;;;;5063189;28;20057;-68
2022/09/23 08:23:19;;;;;;;9.85;8.63;;;15.80;99.90;;;;;;5080256;28;20040;-69
2022/09/23 08:25:47;;;;;;;8.98;8.07;;;15.80;99.90;;;;;;5078777;28;20041;-69
2022/09/23 08:28:18;;;;;;;9.50;8.48;;;15.90;99.90;;;;;;5068341;28;20483;-69
2022/09/23 08:30:49;;;;;;;10.35;8.32;;;15.90;99.90;;;;;;5106332;28;20052;-67
2022/09/23 08:33:16;;;;;;;14.18;12.18;;;15.90;99.90;;;;;;5063111;28;20044;-68
2022/09/23 08:35:49;;;;;;;44.47;39.60;;;15.90;99.90;;;;;;5077556;28;20049;-70
2022/09/23 08:38:16;;;;;;;38.97;32.85;;;16.00;99.90;;;;;;5085583;28;20040;-68
2022/09/23 08:40:46;;;;;;;13.68;12.25;;;16.10;99.90;;;;;;5081502;28;20119;-75
2022/09/23 08:43:26;;;;;;;10.70;9.70;;;16.10;99.90;;;;;;5069391;28;20310;-68
2022/09/23 08:45:53;;;;;;;10.88;9.77;;;16.10;99.90;;;;;;5075908;28;20040;-67
2022/09/23 08:48:31;;;;;;;11.98;10.50;;;16.20;99.90;;;;;;5099203;28;20037;-68
2022/09/23 08:51:02;;;;;;;10.32;9.27;;;16.30;99.90;;;;;;5098645;28;20126;-69
2022/09/23 08:53:34;;;;;;;10.45;9.45;;;16.40;99.90;;;;;;5077812;28;20036;-68
2022/09/23 08:56:06;;;;;;;11.73;10.55;;;16.30;99.90;;;;;;5078322;28;20052;-67
2022/09/23 08:58:46;;;;;;;11.02;8.85;;;16.30;99.90;;;;;;5079753;28;20043;-67
2022/09/23 09:01:18;;;;;;;11.02;9.32;;;16.40;99.90;;;;;;5077327;28;20040;-68
2022/09/23 09:03:53;;;;;;;10.23;9.18;;;16.40;99.90;;;;;;5096148;28;20072;-67
2022/09/23 09:06:29;;;;;;;10.68;8.73;;;16.40;99.90;;;;;;5068551;28;20406;-67
2022/09/23 09:09:01;;;;;;;12.55;10.75;;;16.40;99.90;;;;;;5080738;28;20063;-71
2022/09/23 09:11:35;;;;;;;9.25;8.35;;;16.40;99.90;;;;;;5080050;28;20047;-73
2022/09/23 09:14:44;;;;;;;9.07;8.27;;;16.50;99.90;;;;;;5090059;28;20037;-69
2022/09/23 09:17:32;;;;;;;11.10;9.77;;;16.60;99.90;;;;;;5069783;28;20045;-67
2022/09/23 09:20:17;;;;;;;11.05;8.68;;;16.70;99.90;;;;;;5083502;28;20097;-69
2022/09/23 09:23:01;;;;;;;9.80;8.88;;;16.60;99.90;;;;;;5081650;28;20048;-69
2022/09/23 09:25:52;;;;;;;9.13;8.25;;;16.70;99.90;;;;;;5075398;28;20176;-70
2022/09/23 09:28:34;;;;;;;9.90;8.85;;;16.70;99.90;;;;;;5069547;28;20070;-70
2022/09/23 09:31:20;;;;;;;9.63;8.73;;;16.70;99.90;;;;;;5078925;28;20044;-69
2022/09/23 09:34:05;;;;;;;9.15;8.25;;;16.70;99.90;;;;;;5073669;28;21006;-69
2022/09/23 09:36:32;;;;;;;10.35;9.18;;;16.70;99.90;;;;;;5097285;28;20044;-68
2022/09/23 09:38:58;;;;;;;10.88;9.02;;;16.70;99.90;;;;;;5076336;28;20044;-68
2022/09/23 09:41:30;;;;;;;11.18;10.02;;;16.60;99.90;;;;;;5077654;28;20041;-68
2022/09/23 09:43:59;;;;;;;14.63;13.13;;;16.50;99.90;;;;;;5092432;28;20040;-69
2022/09/23 09:46:51;;;;;;;17.70;15.75;;;16.40;99.90;;;;;;5086133;28;20094;-67
2022/09/23 09:49:27;;;;;;;20.13;17.98;;;16.20;99.90;;;;;;5087049;28;20055;-69
2022/09/23 09:52:18;;;;;;;29.45;24.58;;;16.00;99.90;;;;;;5078354;28;20061;-69
2022/09/23 09:54:45;;;;;;;53.58;45.08;;;15.90;99.90;;;;;;5074532;28;20040;-68
2022/09/23 09:57:26;;;;;;;23.85;19.83;;;15.80;99.90;;;;;;5096156;28;20040;-71
2022/09/23 10:00:36;;;;;;;26.38;18.77;;;15.90;99.90;;;;;;5069411;28;20037;-75
2022/09/23 10:03:13;;;;;;;24.20;19.67;;;16.00;99.90;;;;;;5085759;28;20041;-69
2022/09/23 10:05:43;;;;;;;20.33;18.20;;;16.00;99.90;;;;;;5093819;28;20040;-70
2022/09/23 10:08:28;;;;;;;22.10;19.55;;;15.90;99.90;;;;;;5080435;28;20044;-70
2022/09/23 10:10:59;;;;;;;22.08;19.77;;;16.00;99.90;;;;;;5081284;28;20094;-67
2022/09/23 10:13:28;;;;;;;22.75;19.30;;;16.00;99.90;;;;;;5095085;28;20040;-69
2022/09/23 10:15:56;;;;;;;25.23;18.65;;;16.10;99.90;;;;;;5085760;28;20501;-69
2022/09/23 10:18:46;;;;;;;22.73;20.02;;;16.10;99.90;;;;;;5077445;28;20047;-70
2022/09/23 10:21:14;;;;;;;22.10;18.40;;;16.10;99.90;;;;;;5088892;28;20060;-72
2022/09/23 10:23:45;;;;;;;22.65;20.33;;;16.10;99.90;;;;;;5076319;28;20044;-70
2022/09/23 10:26:14;;;;;;;22.00;19.10;;;16.10;99.90;;;;;;5096536;28;20056;-70
2022/09/23 10:29:01;;;;;;;23.85;19.05;;;16.20;99.90;;;;;;5069165;28;20044;-70
2022/09/23 10:31:32;;;;;;;20.80;18.63;;;16.30;99.90;;;;;;5088297;28;20049;-69
2022/09/23 10:34:19;;;;;;;20.75;17.67;;;16.30;99.90;;;;;;5093874;28;20550;-73
2022/09/23 10:36:53;;;;;;;20.20;18.08;;;16.30;99.90;;;;;;5074336;28;20043;-71
2022/09/23 10:48:28;;;;;;;17.55;15.65;;;16.20;99.90;;;;;;5077911;28;20045;-68
2022/09/23 10:50:55;;;;;;;41.33;33.40;;;16.20;99.90;;;;;;5090017;28;20086;-72
2022/09/23 10:53:29;;;;;;;25.42;22.73;;;16.10;99.90;;;;;;5073132;28;20040;-73
2022/09/23 10:56:16;;;;;;;18.73;15.95;;;16.20;99.90;;;;;;5080114;28;20043;-70
2022/09/23 10:58:53;;;;;;;17.10;15.38;;;16.20;99.90;;;;;;5076294;28;20032;-69
2022/09/23 11:01:33;;;;;;;21.20;16.20;;;16.20;99.90;;;;;;5085926;28;20081;-74
2022/09/23 11:04:15;;;;;;;20.75;15.52;;;16.30;99.90;;;;;;5073940;28;20124;-71
2022/09/23 11:06:59;;;;;;;16.25;14.65;;;16.30;99.90;;;;;;5072692;28;20040;-72
2022/09/23 11:09:52;;;;;;;16.17;14.48;;;16.50;99.90;;;;;;5074218;28;20496;-73
2022/09/23 11:12:57;;;;;;;16.10;14.32;;;16.60;99.90;;;;;;5088016;28;20082;-70
2022/09/23 11:16:03;;;;;;;16.55;14.85;;;16.80;99.90;;;;;;5077737;28;20434;-68
2022/09/23 11:18:36;;;;;;;16.63;14.23;;;16.90;99.90;;;;;;5054662;28;20434;-67
2022/09/23 11:21:36;;;;;;;14.60;13.07;;;17.10;99.90;;;;;;5075927;28;20044;-69
2022/09/23 11:24:22;;;;;;;15.02;13.55;;;17.10;99.90;;;;;;5073003;28;20407;-69
2022/09/23 11:27:07;;;;;;;15.43;12.65;;;17.20;99.90;;;;;;5079782;28;20032;-69
2022/09/23 11:29:53;;;;;;;13.05;11.20;;;17.20;99.90;;;;;;5080053;28;20055;-68
2022/09/23 11:32:41;;;;;;;13.30;10.35;;;17.20;99.90;;;;;;5073568;28;20071;-67
2022/09/23 11:35:22;;;;;;;13.27;11.97;;;17.20;99.90;;;;;;5072208;28;20468;-68
2022/09/23 11:37:52;;;;;;;12.02;10.80;;;17.10;99.90;;;;;;5087770;28;20074;-69
2022/09/23 11:40:39;;;;;;;11.23;9.63;;;17.00;99.90;;;;;;5095565;28;20041;-69
2022/09/23 11:43:17;;;;;;;13.32;9.68;;;17.00;99.90;;;;;;5083619;28;20048;-67
2022/09/23 11:45:48;;;;;;;86.03;77.38;;;17.00;99.90;;;;;;5076719;28;20036;-65
2022/09/23 11:48:39;;;;;;;23.50;21.15;;;17.00;99.90;;;;;;5076636;28;20055;-72
2022/09/23 11:51:12;;;;;;;11.60;10.38;;;17.00;99.90;;;;;;5086458;28;20395;-67
2022/09/23 11:53:52;;;;;;;11.77;10.13;;;17.10;99.90;;;;;;5095381;28;20045;-68
2022/09/23 11:56:37;;;;;;;10.05;8.30;;;17.10;99.90;;;;;;5078510;28;20434;-67
2022/09/23 11:59:32;;;;;;;;;;;17.10;99.90;;;;;;5094469;28;20072;-69
2022/09/23 12:02:40;;;;;;;10.13;7.80;;;17.20;99.90;;;;;;5076777;28;20011;-68
2022/09/23 12:05:13;;;;;;;7.72;6.90;;;17.20;99.90;;;;;;5078894;28;20040;-69
2022/09/23 12:08:27;;;;;;;7.95;6.63;;;17.30;99.90;;;;;;5090327;28;20111;-68
2022/09/23 12:11:31;;;;;;;5.28;4.72;;;17.30;99.90;;;;;;5044177;28;20076;-69
2022/09/23 12:14:17;;;;;;;6.25;5.40;;;17.40;99.90;;;;;;5033725;28;20401;-68
2022/09/23 12:17:22;;;;;;;7.35;5.05;;;17.40;99.90;;;;;;5075320;28;20041;-69
2022/09/23 12:20:02;;;;;;;7.05;5.95;;;17.50;99.90;;;;;;5036752;28;20045;-70
2022/09/23 12:22:44;;;;;;;7.63;5.93;;;17.50;99.90;;;;;;5074280;28;20044;-70
2022/09/23 12:25:45;;;;;;;7.32;6.13;;;17.50;99.90;;;;;;5081676;28;20446;-69
2022/09/23 12:28:19;;;;;;;7.93;6.03;;;17.50;99.90;;;;;;5069232;28;20396;-67
2022/09/23 12:30:46;;;;;;;6.68;6.03;;;17.60;99.90;;;;;;5093674;28;20059;-70
2022/09/23 12:33:13;;;;;;;5.88;5.22;;;17.60;99.90;;;;;;5086580;28;20049;-67
2022/09/23 12:35:41;;;;;;;7.82;5.78;;;17.60;99.90;;;;;;5084031;28;20063;-68
2022/09/23 12:38:18;;;;;;;5.82;4.93;;;17.60;99.90;;;;;;5073670;28;20045;-70
2022/09/23 12:40:45;;;;;;;5.70;5.10;;;17.80;99.90;;;;;;5078869;28;20036;-69
2022/09/23 12:43:32;;;;;;;6.05;5.45;;;17.90;99.90;;;;;;5071374;28;20044;-69
2022/09/23 12:46:27;;;;;;;5.80;5.20;;;18.00;99.90;;;;;;5066380;28;20461;-68
2022/09/23 12:48:56;;;;;;;10.70;5.47;;;18.00;99.90;;;;;;5074689;28;20361;-69
2022/09/23 12:51:23;;;;;;;6.05;4.68;;;18.00;99.90;;;;;;5078888;28;20037;-69
2022/09/23 12:54:03;;;;;;;7.20;5.77;;;18.00;99.90;;;;;;5097485;28;20048;-69
2022/09/23 12:56:36;;;;;;;7.00;5.85;;;17.90;99.90;;;;;;5070937;28;20832;-69
2022/09/23 12:59:18;;;;;;;132.55;108.10;;;17.80;99.90;;;;;;5072651;28;20071;-70
2022/09/23 13:01:45;;;;;;;13.30;11.82;;;17.80;99.90;;;;;;5076450;28;20449;-69
2022/09/23 13:07:29;;;;;;;6.45;5.65;;;17.70;99.90;;;;;;5088495;28;20051;-69
2022/09/23 13:10:05;;;;;;;;;;;17.70;99.90;;;;;;5066110;28;20392;-69
2022/09/23 13:12:35;;;;;;;7.43;5.32;;;17.60;99.90;;;;;;5066300;28;19931;-69
2022/09/23 13:15:05;;;;;;;8.40;6.22;;;17.60;99.90;;;;;;5096730;28;20130;-69
2022/09/23 13:17:35;;;;;;;6.93;5.47;;;17.80;99.90;;;;;;5073063;28;20044;-69
2022/09/23 13:20:20;;;;;;;6.60;4.75;;;18.00;99.90;;;;;;5099616;28;20043;-69
2022/09/23 13:22:53;;;;;;;5.97;5.10;;;18.20;99.90;;;;;;5074392;28;20036;-70
2022/09/23 13:25:32;;;;;;;4.78;4.18;;;18.20;99.90;;;;;;5076536;28;20060;-70
2022/09/23 13:27:59;;;;;;;;;;;18.30;99.90;;;;;;5079096;28;20456;-69
2022/09/23 13:30:26;;;;;;;6.25;4.70;;;18.30;99.90;;;;;;5072247;28;19920;-70